Time;durP1;ratioP1;P1;durP2;ratioP2;P2;SDS_P1;SDS_P2;PMS_P1;PMS_P2;Temp;Humidity;BMP_temperature;BMP_pressure;BME280_temperature;BME280_humidity;BME280_pressure;Samples;Min_cycle;Max_cycle;Signal;HPM_P1;HPM_P2
2023/10/03 00:00:31;;;;;;;45.63;22.13;;;15.00;12.40;;;;;;7371759;19;20015;-69
2023/10/03 00:03:07;;;;;;;44.35;22.88;;;15.00;12.30;;;;;;7378302;19;20022;-69
2023/10/03 00:05:38;;;;;;;45.13;22.02;;;15.00;11.90;;;;;;7374101;19;20065;-69
2023/10/03 00:08:08;;;;;;;41.58;21.63;;;15.00;11.60;;;;;;7379883;19;20042;-69
2023/10/03 00:10:38;;;;;;;44.55;22.25;;;14.90;11.00;;;;;;7371060;19;20017;-70
2023/10/03 00:13:11;;;;;;;44.55;22.73;;;14.90;14.10;;;;;;7377561;19;20018;-70
2023/10/03 00:15:43;;;;;;;44.67;21.80;;;14.90;12.00;;;;;;7376113;19;20026;-70
2023/10/03 00:18:17;;;;;;;42.10;21.20;;;14.90;14.60;;;;;;7376947;19;20046;-70
2023/10/03 00:20:47;;;;;;;43.70;21.85;;;14.80;14.30;;;;;;7371201;19;20024;-70
2023/10/03 00:23:17;;;;;;;41.53;21.83;;;14.80;19.40;;;;;;7378480;19;20010;-70
2023/10/03 00:25:47;;;;;;;48.22;21.83;;;14.70;19.80;;;;;;7378416;19;20418;-70
2023/10/03 00:28:17;;;;;;;44.90;22.88;;;14.70;20.40;;;;;;7381144;19;20434;-71
2023/10/03 00:30:48;;;;;;;49.50;22.08;;;14.70;20.40;;;;;;7372576;19;20093;-70
2023/10/03 00:33:25;;;;;;;41.88;21.40;;;14.70;20.10;;;;;;7375824;19;20010;-70
2023/10/03 00:35:55;;;;;;;39.08;20.60;;;14.70;21.30;;;;;;7376307;19;20010;-70
2023/10/03 00:38:25;;;;;;;43.55;20.92;;;14.80;21.00;;;;;;7376533;19;20018;-70
2023/10/03 00:40:56;;;;;;;46.20;23.10;;;14.80;24.40;;;;;;7371581;19;20541;-70
2023/10/03 00:43:27;;;;;;;42.88;22.40;;;14.70;24.80;;;;;;7376917;19;20048;-71
2023/10/03 00:45:57;;;;;;;41.78;21.13;;;14.80;26.50;;;;;;7375688;19;20093;-69
2023/10/03 00:48:30;;;;;;;40.95;20.83;;;14.80;26.80;;;;;;7376368;19;20022;-69
2023/10/03 00:51:03;;;;;;;45.00;22.35;;;14.70;24.00;;;;;;7370641;19;20652;-68
2023/10/03 00:53:35;;;;;;;41.80;21.30;;;14.70;24.40;;;;;;7376093;19;20014;-69
2023/10/03 00:56:09;;;;;;;52.50;22.05;;;14.60;28.10;;;;;;7376530;19;20014;-69
2023/10/03 00:58:41;;;;;;;50.58;22.75;;;14.60;29.10;;;;;;7375543;19;20027;-69
2023/10/03 01:01:12;;;;;;;45.50;21.92;;;14.60;29.80;;;;;;7369406;19;20462;-69
2023/10/03 01:03:47;;;;;;;43.83;21.48;;;14.50;31.50;;;;;;7375875;19;20031;-69
2023/10/03 01:06:18;;;;;;;46.35;22.02;;;14.60;33.10;;;;;;7375714;19;20014;-69
2023/10/03 01:08:50;;;;;;;44.33;21.73;;;14.50;33.30;;;;;;7375826;19;20379;-69
2023/10/03 01:11:24;;;;;;;44.75;21.92;;;14.50;35.40;;;;;;7370087;19;20039;-69
2023/10/03 01:13:58;;;;;;;41.63;20.80;;;14.40;36.70;;;;;;7377925;19;20018;-70
2023/10/03 01:16:32;;;;;;;41.35;20.63;;;14.40;38.10;;;;;;7374299;19;20283;-69
2023/10/03 01:19:15;;;;;;;40.00;20.88;;;14.40;41.50;;;;;;7376735;19;20097;-70
2023/10/03 01:21:46;;;;;;;38.55;20.42;;;14.40;43.60;;;;;;7370556;19;20014;-71
2023/10/03 01:24:20;;;;;;;42.92;21.20;;;14.40;42.10;;;;;;7376577;19;20038;-70
2023/10/03 01:26:52;;;;;;;42.58;21.15;;;14.40;41.20;;;;;;7372529;19;20007;-71
2023/10/03 01:29:23;;;;;;;42.67;21.08;;;14.40;42.10;;;;;;7375140;19;20014;-70
2023/10/03 01:31:55;;;;;;;40.45;21.48;;;14.40;46.50;;;;;;7373863;19;20478;-69
2023/10/03 01:34:25;;;;;;;40.40;20.85;;;14.40;49.00;;;;;;7375829;19;20018;-71
2023/10/03 01:36:55;;;;;;;39.75;20.48;;;14.30;52.40;;;;;;7375214;19;20035;-70
2023/10/03 01:39:28;;;;;;;38.40;20.40;;;14.40;51.60;;;;;;7374474;19;20014;-70
2023/10/03 01:41:58;;;;;;;45.95;22.48;;;14.30;48.10;;;;;;7374295;19;20432;-70
2023/10/03 01:44:28;;;;;;;43.65;20.05;;;14.20;52.30;;;;;;7374875;19;20017;-70
2023/10/03 01:46:59;;;;;;;39.45;19.60;;;14.30;56.80;;;;;;7374739;19;20035;-70
2023/10/03 01:49:29;;;;;;;37.47;19.25;;;14.40;59.00;;;;;;7373377;19;20022;-70
2023/10/03 01:51:59;;;;;;;41.28;20.80;;;14.60;53.50;;;;;;7373738;19;20017;-70
2023/10/03 01:54:33;;;;;;;38.55;18.85;;;14.70;49.60;;;;;;7375413;19;20399;-71
2023/10/03 01:57:03;;;;;;;38.08;19.45;;;14.70;46.00;;;;;;7374870;19;20496;-70
2023/10/03 01:59:34;;;;;;;38.70;19.45;;;14.70;46.20;;;;;;7372960;19;20692;-70
2023/10/03 02:02:06;;;;;;;40.97;20.25;;;14.90;42.60;;;;;;7375147;19;20019;-70
2023/10/03 02:04:36;;;;;;;36.67;18.15;;;15.00;34.30;;;;;;7374113;19;20014;-69
2023/10/03 02:07:06;;;;;;;36.17;18.50;;;15.20;36.10;;;;;;7373070;19;20018;-70
2023/10/03 02:09:39;;;;;;;41.17;20.10;;;15.40;27.00;;;;;;7371464;19;20018;-70
2023/10/03 02:12:10;;;;;;;35.58;18.58;;;15.50;23.00;;;;;;7374072;19;20069;-68
2023/10/03 02:14:42;;;;;;;33.53;18.17;;;15.60;16.30;;;;;;7371850;19;20021;-68
2023/10/03 02:17:12;;;;;;;34.13;17.90;;;15.80;15.00;;;;;;7371284;19;20625;-69
2023/10/03 02:19:42;;;;;;;37.10;18.63;;;15.70;13.60;;;;;;7370383;19;20027;-69
2023/10/03 02:22:13;;;;;;;36.25;17.88;;;15.60;11.50;;;;;;7374006;19;20011;-69
2023/10/03 02:24:46;;;;;;;37.22;19.17;;;15.30;10.30;;;;;;7374134;19;20021;-69
2023/10/03 02:27:17;;;;;;;34.53;18.27;;;14.90;10.40;;;;;;7374037;19;20019;-69
2023/10/03 02:29:51;;;;;;;35.30;17.48;;;14.70;17.60;;;;;;7372025;19;20034;-69
2023/10/03 02:32:21;;;;;;;37.05;18.38;;;14.60;24.70;;;;;;7372956;19;20656;-69
2023/10/03 02:34:52;;;;;;;34.22;19.00;;;14.80;30.70;;;;;;7372227;19;20019;-69
2023/10/03 02:37:22;;;;;;;33.72;17.83;;;15.10;27.60;;;;;;7373941;19;20022;-69
2023/10/03 02:39:55;;;;;;;35.22;18.13;;;15.40;21.30;;;;;;7371865;19;20010;-69
2023/10/03 02:42:25;;;;;;;32.00;17.33;;;15.60;15.90;;;;;;7374292;19;20022;-69
2023/10/03 02:44:57;;;;;;;32.30;16.65;;;15.90;12.20;;;;;;7373188;19;20007;-69
2023/10/03 02:47:29;;;;;;;34.33;17.55;;;15.80;13.20;;;;;;7372840;19;20010;-69
2023/10/03 02:50:00;;;;;;;37.63;17.90;;;16.10;6.60;;;;;;7370480;19;20022;-69
2023/10/03 02:52:30;;;;;;;36.75;17.85;;;16.20;1.70;;;;;;7372214;19;20014;-69
2023/10/03 02:55:02;;;;;;;33.03;17.10;;;16.30;1.00;;;;;;7374175;19;20014;-70
2023/10/03 02:57:32;;;;;;;32.28;16.13;;;16.20;1.00;;;;;;7375885;19;20014;-70
2023/10/03 03:00:05;;;;;;;31.90;16.23;;;16.20;1.00;;;;;;7379320;19;20866;-70
2023/10/03 03:02:36;;;;;;;29.13;15.95;;;16.40;1.00;;;;;;7379305;19;20018;-70
2023/10/03 03:05:09;;;;;;;32.08;16.35;;;16.30;1.00;;;;;;7385655;19;20458;-70
2023/10/03 03:07:39;;;;;;;31.38;16.20;;;16.40;1.00;;;;;;7382161;19;20463;-69
2023/10/03 03:10:13;;;;;;;30.00;15.43;;;16.50;1.00;;;;;;7378708;19;21283;-69
2023/10/03 03:12:44;;;;;;;31.00;15.98;;;16.50;1.00;;;;;;7378364;19;20098;-69
2023/10/03 03:15:22;;;;;;;30.08;14.82;;;16.50;1.00;;;;;;7380253;19;20030;-69
2023/10/03 03:17:53;;;;;;;32.10;15.93;;;16.60;1.00;;;;;;7379376;19;20013;-71
2023/10/03 03:20:26;;;;;;;31.58;16.13;;;16.60;1.00;;;;;;7377716;19;20014;-69
2023/10/03 03:23:00;;;;;;;32.17;16.50;;;16.40;1.00;;;;;;7379689;19;20019;-70
2023/10/03 03:25:38;;;;;;;31.88;15.77;;;16.40;1.00;;;;;;7376947;19;20051;-69
2023/10/03 03:28:13;;;;;;;29.98;15.27;;;16.50;1.00;;;;;;7380092;19;20020;-70
2023/10/03 03:30:45;;;;;;;29.08;15.57;;;16.40;1.00;;;;;;7376783;19;20022;-69
2023/10/03 03:33:19;;;;;;;31.60;15.57;;;16.40;1.00;;;;;;7379221;19;20031;-69
2023/10/03 03:35:50;;;;;;;28.42;14.25;;;16.50;1.00;;;;;;7376138;19;20018;-69
2023/10/03 03:38:20;;;;;;;29.98;15.45;;;16.40;1.00;;;;;;7379179;19;20050;-71
2023/10/03 03:40:56;;;;;;;29.67;15.45;;;16.40;1.00;;;;;;7375821;19;20863;-69
2023/10/03 03:43:27;;;;;;;28.88;15.98;;;16.40;1.00;;;;;;7379054;19;20625;-70
2023/10/03 03:45:58;;;;;;;33.05;13.98;;;16.40;1.00;;;;;;7377435;19;20010;-70
2023/10/03 03:48:28;;;;;;;30.45;15.00;;;16.40;1.00;;;;;;7377650;19;20014;-69
2023/10/03 03:50:58;;;;;;;32.15;15.73;;;16.40;1.00;;;;;;7375349;19;20022;-69
2023/10/03 03:53:29;;;;;;;30.77;15.38;;;16.40;1.00;;;;;;7378024;19;20007;-69
2023/10/03 03:56:04;;;;;;;30.63;15.40;;;16.30;1.00;;;;;;7377464;19;20466;-69
2023/10/03 03:58:36;;;;;;;31.05;15.82;;;16.20;1.00;;;;;;7377469;19;20011;-69
2023/10/03 04:01:19;;;;;;;32.63;15.77;;;16.20;1.00;;;;;;7378034;19;20399;-70
2023/10/03 04:03:53;;;;;;;28.85;15.20;;;16.20;1.00;;;;;;7377777;19;20620;-69
2023/10/03 04:06:24;;;;;;;33.75;15.63;;;16.20;1.00;;;;;;7377210;19;20011;-69
2023/10/03 04:08:54;;;;;;;34.40;16.92;;;16.20;1.00;;;;;;7373364;19;20060;-69
2023/10/03 04:11:39;;;;;;;35.30;15.57;;;16.10;1.00;;;;;;7375178;19;20015;-69
2023/10/03 04:14:09;;;;;;;30.85;15.40;;;16.10;1.00;;;;;;7378616;19;20094;-70
2023/10/03 04:16:41;;;;;;;29.45;15.73;;;16.10;1.00;;;;;;7375882;19;20011;-70
2023/10/03 04:19:15;;;;;;;27.13;14.50;;;16.10;1.00;;;;;;7377008;19;20010;-70
2023/10/03 04:21:45;;;;;;;28.80;15.57;;;16.00;1.00;;;;;;7374657;19;20053;-70
2023/10/03 04:24:16;;;;;;;31.52;15.77;;;16.00;1.00;;;;;;7376527;19;20010;-70
2023/10/03 04:26:53;;;;;;;30.15;15.82;;;16.10;1.00;;;;;;7376390;19;20041;-70
2023/10/03 04:29:23;;;;;;;30.67;16.25;;;16.00;1.00;;;;;;7376030;19;20422;-70
2023/10/03 04:31:53;;;;;;;33.47;16.35;;;16.00;1.00;;;;;;7375776;19;20014;-70
2023/10/03 04:34:23;;;;;;;30.38;16.27;;;16.00;1.00;;;;;;7378485;19;20098;-70
2023/10/03 04:36:54;;;;;;;30.77;15.65;;;16.10;1.00;;;;;;7375916;19;20037;-70
2023/10/03 04:39:24;;;;;;;28.20;15.07;;;16.10;1.00;;;;;;7376327;19;20017;-70
2023/10/03 04:41:58;;;;;;;27.65;15.05;;;16.10;1.00;;;;;;7374788;19;20038;-70
2023/10/03 04:44:28;;;;;;;32.15;16.08;;;16.10;1.00;;;;;;7375331;19;20022;-70
2023/10/03 04:46:58;;;;;;;31.33;14.77;;;16.10;1.00;;;;;;7377554;19;20750;-70
2023/10/03 04:49:29;;;;;;;31.77;16.35;;;16.00;1.00;;;;;;7376002;19;20036;-70
2023/10/03 04:51:59;;;;;;;25.83;13.80;;;16.00;1.00;;;;;;7377393;19;20027;-70
2023/10/03 04:54:29;;;;;;;26.75;14.13;;;16.00;1.00;;;;;;7377690;19;20018;-70
2023/10/03 04:57:02;;;;;;;26.52;14.45;;;16.10;1.00;;;;;;7375649;19;20380;-70
2023/10/03 04:59:32;;;;;;;29.63;13.45;;;16.10;1.00;;;;;;7375806;19;20015;-70
2023/10/03 05:02:03;;;;;;;26.58;14.20;;;16.10;1.00;;;;;;7377399;19;20014;-70
2023/10/03 05:04:34;;;;;;;30.85;14.25;;;16.10;1.00;;;;;;7376559;19;20014;-70
2023/10/03 05:07:04;;;;;;;28.63;15.52;;;16.10;1.00;;;;;;7376835;19;20050;-70
2023/10/03 05:09:34;;;;;;;27.77;14.15;;;16.20;1.00;;;;;;7374608;19;20383;-70
2023/10/03 05:12:07;;;;;;;26.55;13.35;;;16.20;1.00;;;;;;7377183;19;20077;-71
2023/10/03 05:14:40;;;;;;;25.98;14.13;;;16.10;1.00;;;;;;7376180;19;20021;-70
2023/10/03 05:17:10;;;;;;;27.65;13.20;;;16.20;1.00;;;;;;7376924;19;20010;-70
2023/10/03 05:19:41;;;;;;;28.40;13.98;;;16.20;1.00;;;;;;7373132;19;20075;-69
2023/10/03 05:22:13;;;;;;;25.58;13.73;;;16.30;1.00;;;;;;7377689;19;20104;-70
2023/10/03 05:24:43;;;;;;;25.30;13.20;;;16.20;1.00;;;;;;7376855;19;20081;-70
2023/10/03 05:27:16;;;;;;;28.15;14.55;;;16.10;1.00;;;;;;7379347;19;20190;-70
2023/10/03 05:29:46;;;;;;;26.45;14.45;;;16.10;1.00;;;;;;7399983;19;20060;-71
2023/10/03 05:32:17;;;;;;;29.05;14.40;;;16.10;1.00;;;;;;7381418;19;20017;-70
2023/10/03 05:34:47;;;;;;;27.55;14.10;;;16.10;1.00;;;;;;7376674;19;20010;-70
2023/10/03 05:37:17;;;;;;;26.35;13.23;;;16.10;1.00;;;;;;7376576;19;20024;-70
2023/10/03 05:39:48;;;;;;;23.35;12.43;;;16.20;1.00;;;;;;7373843;19;20014;-70
2023/10/03 05:42:20;;;;;;;24.58;12.70;;;16.10;1.00;;;;;;7376037;19;20105;-69
2023/10/03 05:44:51;;;;;;;26.15;13.52;;;16.20;1.00;;;;;;7380905;19;20047;-69
2023/10/03 05:47:21;;;;;;;27.75;13.93;;;16.40;1.00;;;;;;7379762;19;20094;-70
2023/10/03 05:49:51;;;;;;;25.13;12.95;;;16.50;1.00;;;;;;7375928;19;20041;-69
2023/10/03 05:52:22;;;;;;;24.45;12.23;;;16.50;1.00;;;;;;7375897;19;20023;-69
2023/10/03 05:54:52;;;;;;;27.13;12.75;;;16.50;1.00;;;;;;7375673;19;20019;-70
2023/10/03 05:57:24;;;;;;;27.52;13.10;;;16.60;1.00;;;;;;7368431;19;20114;-69
2023/10/03 05:59:54;;;;;;;25.35;13.52;;;16.70;1.00;;;;;;7372847;19;20023;-70
2023/10/03 06:02:25;;;;;;;26.17;13.15;;;16.80;1.00;;;;;;7374151;19;20053;-70
2023/10/03 06:04:55;;;;;;;24.00;12.00;;;16.80;1.00;;;;;;7374298;19;20014;-70
2023/10/03 06:07:25;;;;;;;20.30;11.43;;;16.90;1.00;;;;;;7374722;19;20011;-70
2023/10/03 06:09:55;;;;;;;26.15;11.80;;;17.00;1.00;;;;;;7372650;19;20101;-69
2023/10/03 06:12:28;;;;;;;25.52;12.57;;;17.00;1.00;;;;;;7375317;19;20027;-70
2023/10/03 06:14:58;;;;;;;23.48;11.52;;;17.20;1.00;;;;;;7374278;19;20093;-70
2023/10/03 06:17:28;;;;;;;25.33;12.23;;;17.30;1.00;;;;;;7374284;19;21261;-70
2023/10/03 06:19:58;;;;;;;23.63;11.85;;;17.40;1.00;;;;;;7371474;19;20018;-70
2023/10/03 06:22:29;;;;;;;20.70;10.88;;;17.60;1.00;;;;;;7374233;19;20422;-70
2023/10/03 06:24:59;;;;;;;23.67;11.88;;;17.70;1.00;;;;;;7373894;19;20516;-70
2023/10/03 06:27:32;;;;;;;20.00;11.05;;;17.70;1.00;;;;;;7374783;19;20007;-70
2023/10/03 06:30:02;;;;;;;22.33;10.93;;;17.70;1.00;;;;;;7369362;19;20093;-70
2023/10/03 06:32:32;;;;;;;19.20;10.82;;;17.80;1.00;;;;;;7371177;19;20578;-70
2023/10/03 06:35:04;;;;;;;21.27;10.85;;;18.00;1.00;;;;;;7373648;19;20014;-70
2023/10/03 06:37:35;;;;;;;20.23;10.90;;;18.10;1.00;;;;;;7372956;19;20045;-70
2023/10/03 06:40:06;;;;;;;17.55;10.43;;;18.20;1.00;;;;;;7373376;19;20078;-70
2023/10/03 06:42:40;;;;;;;21.08;10.50;;;18.30;1.00;;;;;;7372502;19;20024;-70
2023/10/03 06:45:13;;;;;;;19.25;9.73;;;18.50;1.00;;;;;;7374215;19;20014;-70
2023/10/03 06:47:43;;;;;;;16.70;9.63;;;18.60;1.00;;;;;;7372726;19;20030;-70
2023/10/03 06:50:15;;;;;;;23.17;11.82;;;18.80;1.00;;;;;;7372107;19;20031;-70
2023/10/03 06:52:47;;;;;;;19.45;9.82;;;19.00;1.00;;;;;;7372478;19;20086;-70
2023/10/03 06:55:17;;;;;;;20.35;10.13;;;19.20;1.00;;;;;;7372742;19;20023;-71
2023/10/03 06:57:50;;;;;;;18.73;9.73;;;19.40;1.00;;;;;;7371962;19;20011;-70
2023/10/03 07:00:22;;;;;;;19.13;9.48;;;19.50;1.00;;;;;;7369011;19;20038;-70
2023/10/03 07:02:52;;;;;;;17.95;8.93;;;19.70;1.00;;;;;;7369237;19;20033;-70
2023/10/03 07:05:22;;;;;;;16.55;8.55;;;20.00;1.00;;;;;;7372803;19;20023;-69
2023/10/03 07:07:53;;;;;;;17.63;9.13;;;20.20;1.00;;;;;;7372235;19;20030;-70
2023/10/03 07:10:25;;;;;;;15.13;8.60;;;20.30;1.00;;;;;;7371457;19;20015;-69
2023/10/03 07:12:58;;;;;;;17.65;8.43;;;20.60;1.00;;;;;;7369842;19;20085;-70
2023/10/03 07:15:28;;;;;;;19.50;9.23;;;20.60;1.00;;;;;;7372097;19;20090;-70
2023/10/03 07:17:58;;;;;;;15.38;8.35;;;20.90;1.00;;;;;;7372485;19;20010;-70
2023/10/03 07:20:28;;;;;;;16.50;8.40;;;21.00;1.00;;;;;;7368231;19;20011;-70
2023/10/03 07:23:00;;;;;;;17.15;8.30;;;21.20;1.00;;;;;;7370811;19;20577;-70
2023/10/03 07:25:31;;;;;;;14.30;7.90;;;21.40;1.00;;;;;;7369751;19;20025;-70
2023/10/03 07:28:04;;;;;;;14.30;8.05;;;21.40;1.00;;;;;;7371352;19;20085;-71
2023/10/03 07:30:36;;;;;;;12.45;7.80;;;21.50;1.00;;;;;;7370232;19;20082;-70
2023/10/03 07:33:07;;;;;;;14.38;8.02;;;21.80;1.00;;;;;;7369061;19;20040;-71
2023/10/03 07:35:41;;;;;;;13.25;7.82;;;22.00;1.00;;;;;;7369166;19;20014;-70
2023/10/03 07:38:12;;;;;;;18.00;8.10;;;22.10;1.00;;;;;;7373230;19;20019;-71
2023/10/03 07:40:42;;;;;;;15.52;8.20;;;22.40;1.00;;;;;;7368597;19;20010;-71
2023/10/03 07:43:16;;;;;;;15.80;8.18;;;22.40;1.00;;;;;;7374402;19;20367;-71
2023/10/03 07:45:46;;;;;;;15.38;8.18;;;22.50;1.00;;;;;;7376115;19;20003;-71
2023/10/03 07:48:16;;;;;;;15.90;8.65;;;22.60;1.00;;;;;;7378992;19;20011;-71
2023/10/03 07:50:46;;;;;;;14.05;8.48;;;22.90;1.00;;;;;;7376133;19;20040;-71
2023/10/03 07:53:17;;;;;;;13.85;8.30;;;22.80;1.00;;;;;;7376236;19;20136;-71
2023/10/03 07:55:47;;;;;;;16.50;8.57;;;23.10;1.00;;;;;;7375742;19;21209;-71
2023/10/03 07:58:20;;;;;;;13.88;7.88;;;23.20;1.00;;;;;;7377507;19;20090;-71
2023/10/03 08:00:50;;;;;;;14.82;7.90;;;23.40;1.00;;;;;;7373928;19;20006;-71
2023/10/03 08:03:20;;;;;;;14.52;7.90;;;23.40;1.00;;;;;;7376355;19;20078;-71
2023/10/03 08:05:53;;;;;;;15.63;6.40;;;23.50;1.00;;;;;;7375677;19;20080;-71
2023/10/03 08:08:25;;;;;;;12.45;6.18;;;23.80;1.00;;;;;;7378200;19;20018;-71
2023/10/03 08:10:56;;;;;;;10.82;5.80;;;23.90;1.00;;;;;;7374373;19;20098;-71
2023/10/03 08:13:28;;;;;;;8.45;4.88;;;24.10;1.00;;;;;;7377867;19;20018;-71
2023/10/03 08:15:58;;;;;;;11.07;4.93;;;24.20;1.00;;;;;;7375445;19;20025;-71
2023/10/03 08:18:29;;;;;;;10.43;4.85;;;24.40;1.00;;;;;;7378061;19;20048;-71
2023/10/03 08:21:03;;;;;;;7.80;5.05;;;24.60;1.00;;;;;;7375046;19;20512;-71
2023/10/03 08:23:37;;;;;;;10.43;5.30;;;24.90;1.00;;;;;;7382315;19;20017;-71
2023/10/03 08:26:07;;;;;;;;;;;25.10;1.00;;;;;;7386673;19;20027;-71
2023/10/03 08:28:40;;;;;;;8.98;4.85;;;24.90;1.00;;;;;;7376951;19;20287;-71
2023/10/03 08:31:08;;;;;;;12.27;5.53;;;24.80;1.00;;;;;;7371781;19;20092;-69
2023/10/03 08:33:39;;;;;;;11.30;5.70;;;24.90;1.00;;;;;;7375968;19;20025;-70
2023/10/03 08:36:14;;;;;;;7.57;4.63;;;24.70;1.00;;;;;;7375832;19;20362;-70
2023/10/03 08:38:45;;;;;;;8.82;5.20;;;24.70;1.00;;;;;;7377013;19;20015;-70
2023/10/03 08:41:19;;;;;;;7.57;5.57;;;24.60;1.00;;;;;;7374415;19;20747;-70
2023/10/03 08:43:56;;;;;;;9.45;5.68;;;24.70;1.00;;;;;;7376300;19;20014;-70
2023/10/03 08:46:36;;;;;;;8.13;5.45;;;24.80;1.00;;;;;;7373385;19;20810;-70
2023/10/03 08:49:10;;;;;;;9.48;5.03;;;24.80;1.00;;;;;;7377253;19;20010;-70
2023/10/03 08:51:40;;;;;;;8.82;5.40;;;24.70;1.00;;;;;;7373182;19;20011;-70
2023/10/03 08:54:13;;;;;;;11.18;5.90;;;24.90;1.00;;;;;;7375942;19;20043;-70
2023/10/03 08:56:44;;;;;;;9.55;5.88;;;25.00;1.00;;;;;;7372542;19;20006;-70
2023/10/03 08:59:19;;;;;;;10.77;5.97;;;25.10;1.00;;;;;;7373991;19;20022;-70
2023/10/03 09:01:49;;;;;;;9.38;5.82;;;25.20;1.00;;;;;;7376097;19;21080;-70
2023/10/03 09:04:19;;;;;;;9.38;5.78;;;25.30;1.00;;;;;;7378140;19;20014;-70
2023/10/03 09:06:50;;;;;;;7.85;4.80;;;25.50;1.00;;;;;;7390197;19;20045;-70
2023/10/03 09:09:21;;;;;;;9.38;4.60;;;25.90;1.00;;;;;;7385505;19;20006;-70
2023/10/03 09:11:52;;;;;;;7.65;4.28;;;26.10;1.00;;;;;;7373363;19;20470;-70
2023/10/03 09:14:24;;;;;;;8.57;4.82;;;26.40;1.00;;;;;;7373061;19;20026;-70
2023/10/03 09:16:59;;;;;;;10.45;4.65;;;26.20;1.00;;;;;;7372513;19;20046;-70
2023/10/03 09:19:44;;;;;;;11.07;5.88;;;26.10;1.00;;;;;;7372812;19;20493;-70
2023/10/03 09:22:30;;;;;;;10.10;6.82;;;26.20;1.00;;;;;;7374288;19;20014;-70
2023/10/03 09:25:00;;;;;;;8.25;5.45;;;26.50;1.00;;;;;;7374415;19;20021;-70
2023/10/03 09:27:31;;;;;;;7.22;4.22;;;26.50;1.00;;;;;;7374772;19;20051;-70
2023/10/03 09:30:10;;;;;;;6.82;4.63;;;26.50;1.00;;;;;;7371955;19;20010;-70
2023/10/03 09:32:40;;;;;;;8.13;4.55;;;26.70;1.00;;;;;;7373313;19;20445;-71
2023/10/03 09:35:12;;;;;;;7.75;4.18;;;26.90;1.00;;;;;;7375262;19;20010;-70
2023/10/03 09:37:48;;;;;;;7.85;4.68;;;26.70;1.00;;;;;;7373983;19;20410;-70
2023/10/03 09:40:22;;;;;;;6.93;4.18;;;26.60;1.00;;;;;;7374292;19;20018;-70
2023/10/03 09:42:54;;;;;;;9.00;5.10;;;26.50;1.00;;;;;;7371638;19;20026;-70
2023/10/03 09:45:27;;;;;;;10.10;5.32;;;26.70;1.00;;;;;;7374780;19;20078;-70
2023/10/03 09:48:05;;;;;;;8.73;4.60;;;26.90;1.00;;;;;;7373881;19;20031;-70
2023/10/03 09:50:39;;;;;;;8.43;4.55;;;27.20;1.00;;;;;;7372951;19;20054;-70
2023/10/03 09:53:15;;;;;;;11.32;4.57;;;27.30;1.00;;;;;;7374652;19;20024;-70
2023/10/03 09:55:49;;;;;;;5.55;3.90;;;27.80;1.00;;;;;;7374056;19;20021;-70
2023/10/03 09:58:24;;;;;;;6.20;4.07;;;27.50;1.00;;;;;;7375542;19;20010;-70
2023/10/03 10:00:58;;;;;;;6.43;3.95;;;27.60;1.00;;;;;;7372286;19;20111;-70
2023/10/03 10:03:33;;;;;;;13.23;4.15;;;27.40;1.00;;;;;;7372300;19;20022;-70
2023/10/03 10:06:19;;;;;;;9.80;4.40;;;27.10;1.00;;;;;;7372338;19;20470;-70
2023/10/03 10:08:57;;;;;;;7.78;4.63;;;26.90;1.00;;;;;;7373293;19;20602;-70
2023/10/03 10:11:30;;;;;;;14.43;4.10;;;26.70;1.00;;;;;;7370658;19;20082;-70
2023/10/03 10:14:09;;;;;;;8.90;4.85;;;26.90;1.00;;;;;;7370788;19;20129;-70
2023/10/03 10:17:22;;;;;;;8.50;4.65;;;27.10;1.00;;;;;;7369597;19;20375;-70
2023/10/03 10:20:11;;;;;;;8.48;4.45;;;27.10;1.00;;;;;;7367934;19;20023;-71
2023/10/03 10:23:13;;;;;;;8.63;4.57;;;27.10;1.00;;;;;;7374580;19;20478;-70
2023/10/03 10:25:50;;;;;;;8.02;4.05;;;27.00;1.00;;;;;;7371749;19;20042;-71
2023/10/03 10:28:27;;;;;;;9.90;4.90;;;27.10;1.00;;;;;;7371691;19;20071;-70
2023/10/03 10:31:21;;;;;;;7.40;4.32;;;27.00;1.00;;;;;;7366317;19;20057;-70
2023/10/03 10:34:37;;;;;;;13.70;4.35;;;27.00;1.00;;;;;;7371561;19;20070;-70
2023/10/03 10:37:09;;;;;;;7.85;4.13;;;27.00;1.00;;;;;;7372240;19;20019;-71
2023/10/03 10:40:21;;;;;;;6.80;4.60;;;27.20;1.00;;;;;;7370542;19;20022;-71
2023/10/03 10:42:59;;;;;;;6.60;3.72;;;27.30;1.00;;;;;;7368270;19;20010;-70
2023/10/03 10:45:37;;;;;;;5.45;4.22;;;27.30;1.00;;;;;;7370900;19;20391;-70
2023/10/03 10:48:11;;;;;;;8.15;4.63;;;27.50;1.00;;;;;;7373221;19;20074;-70
2023/10/03 10:51:12;;;;;;;6.13;4.38;;;27.20;1.00;;;;;;7370195;19;20395;-70
2023/10/03 10:53:47;;;;;;;7.53;4.13;;;27.10;1.00;;;;;;7368599;19;20233;-70
2023/10/03 10:56:17;;;;;;;9.55;4.80;;;27.20;1.00;;;;;;7370481;19;20010;-71
2023/10/03 10:59:01;;;;;;;9.13;4.35;;;27.30;1.00;;;;;;7370423;19;20077;-70
2023/10/03 11:01:41;;;;;;;6.40;4.78;;;26.80;1.00;;;;;;7367328;19;20027;-71
2023/10/03 11:04:25;;;;;;;7.75;4.40;;;27.00;1.00;;;;;;7372916;19;21011;-71
2023/10/03 11:06:57;;;;;;;6.25;4.35;;;27.20;1.00;;;;;;7373126;19;20082;-70
2023/10/03 11:09:29;;;;;;;7.22;4.20;;;27.10;1.00;;;;;;7376719;19;20006;-70
2023/10/03 11:12:00;;;;;;;5.63;4.07;;;26.70;1.00;;;;;;7369173;19;20011;-70
2023/10/03 11:14:31;;;;;;;6.40;4.53;;;26.70;1.00;;;;;;7370601;19;20021;-70
2023/10/03 11:17:02;;;;;;;7.80;4.10;;;26.30;1.00;;;;;;7370607;19;20400;-70
2023/10/03 11:19:36;;;;;;;7.80;4.55;;;26.00;1.00;;;;;;7375586;19;20067;-70
2023/10/03 11:22:11;;;;;;;6.28;4.28;;;26.20;1.00;;;;;;7374359;19;20014;-70
2023/10/03 11:24:44;;;;;;;5.60;4.30;;;26.40;1.00;;;;;;7375851;19;20023;-70
2023/10/03 11:27:25;;;;;;;7.47;4.72;;;26.50;1.00;;;;;;7374691;19;20029;-70
2023/10/03 11:29:55;;;;;;;9.93;4.88;;;26.20;1.00;;;;;;7371993;19;20057;-69
2023/10/03 11:32:29;;;;;;;8.48;4.97;;;26.30;1.00;;;;;;7377692;19;20006;-70
2023/10/03 11:35:00;;;;;;;9.20;4.88;;;26.50;1.00;;;;;;7376792;19;20018;-69
2023/10/03 11:37:36;;;;;;;9.55;4.78;;;26.30;1.00;;;;;;7375951;19;20022;-69
2023/10/03 11:40:11;;;;;;;7.28;4.13;;;26.50;1.00;;;;;;7375305;19;20014;-69
2023/10/03 11:42:55;;;;;;;7.43;4.43;;;26.40;1.00;;;;;;7376618;19;20081;-69
2023/10/03 11:45:28;;;;;;;6.45;4.60;;;26.20;1.00;;;;;;7377637;19;20139;-68
2023/10/03 11:48:05;;;;;;;7.18;4.43;;;25.80;1.00;;;;;;7377145;19;20006;-69
2023/10/03 11:50:37;;;;;;;9.68;4.50;;;25.60;1.00;;;;;;7375247;19;21324;-70
2023/10/03 11:53:10;;;;;;;8.82;4.75;;;25.60;1.00;;;;;;7375710;19;20031;-70
2023/10/03 11:55:42;;;;;;;7.13;4.25;;;25.60;1.00;;;;;;7375384;19;20035;-70
2023/10/03 11:58:13;;;;;;;5.68;3.72;;;25.70;1.00;;;;;;7377472;19;20006;-70
2023/10/03 12:00:44;;;;;;;8.27;4.40;;;25.60;1.00;;;;;;7373531;19;20044;-70
2023/10/03 12:03:15;;;;;;;8.60;4.65;;;25.90;1.00;;;;;;7376074;19;20015;-69
2023/10/03 12:05:46;;;;;;;7.22;4.47;;;26.00;1.00;;;;;;7371466;19;20041;-70
2023/10/03 12:08:19;;;;;;;10.10;4.65;;;26.30;1.00;;;;;;7376611;19;20041;-70
2023/10/03 12:10:49;;;;;;;7.57;4.80;;;26.40;1.00;;;;;;7372013;19;20018;-69
2023/10/03 12:13:19;;;;;;;10.98;5.38;;;26.20;1.00;;;;;;7373773;19;20056;-69
2023/10/03 12:15:50;;;;;;;9.38;5.28;;;26.10;1.00;;;;;;7372035;19;20534;-68
2023/10/03 12:18:20;;;;;;;10.85;5.53;;;25.50;1.00;;;;;;7376345;19;20014;-69
2023/10/03 12:20:50;;;;;;;8.40;5.13;;;25.50;1.00;;;;;;7371316;19;20081;-69
2023/10/03 12:23:23;;;;;;;8.60;5.55;;;25.40;1.00;;;;;;7375599;19;20103;-69
2023/10/03 12:25:53;;;;;;;8.95;5.00;;;25.20;1.00;;;;;;7373023;19;20011;-68
2023/10/03 12:28:23;;;;;;;13.27;5.40;;;25.20;1.00;;;;;;7375614;19;20029;-68
2023/10/03 12:30:53;;;;;;;10.52;5.10;;;25.00;1.00;;;;;;7370509;19;20034;-69
2023/10/03 12:33:23;;;;;;;9.07;5.60;;;24.90;1.00;;;;;;7375249;19;20014;-69
2023/10/03 12:35:53;;;;;;;7.65;5.03;;;24.90;1.00;;;;;;7373631;19;20015;-69
2023/10/03 12:38:25;;;;;;;10.05;5.30;;;24.70;1.00;;;;;;7377088;19;20017;-69
2023/10/03 12:41:01;;;;;;;9.80;5.75;;;24.50;1.00;;;;;;7370188;19;20473;-69
2023/10/03 12:43:34;;;;;;;10.65;5.35;;;24.40;1.00;;;;;;7376556;19;20016;-69
2023/10/03 12:46:04;;;;;;;15.95;5.65;;;24.60;1.00;;;;;;7372769;19;20026;-68
2023/10/03 12:48:34;;;;;;;8.18;5.57;;;24.50;1.00;;;;;;7400242;19;20007;-70
2023/10/03 12:51:05;;;;;;;8.13;5.15;;;24.70;1.00;;;;;;7375582;19;20023;-69
2023/10/03 12:53:38;;;;;;;10.10;5.60;;;24.80;1.00;;;;;;7373248;19;20010;-70
2023/10/03 12:56:11;;;;;;;11.38;5.78;;;24.50;1.00;;;;;;7371781;19;20014;-70
2023/10/03 12:58:42;;;;;;;8.65;5.00;;;24.60;1.00;;;;;;7373461;19;20022;-70
2023/10/03 13:01:14;;;;;;;11.88;5.40;;;24.40;1.00;;;;;;7370601;19;20015;-68
2023/10/03 13:03:46;;;;;;;11.43;4.68;;;24.30;1.00;;;;;;7373183;19;20078;-70
2023/10/03 13:06:19;;;;;;;9.15;5.60;;;24.40;1.00;;;;;;7372782;19;20344;-69
2023/10/03 13:08:52;;;;;;;9.98;4.95;;;24.10;1.00;;;;;;7370928;19;20048;-70
2023/10/03 13:11:22;;;;;;;10.02;4.85;;;24.10;1.00;;;;;;7371917;19;20027;-69